Date,TemperatureHighF,TemperatureAvgF,TemperatureLowF,DewpointHighF,DewpointAvgF,DewpointLowF,HumidityHigh,HumidityAvg,HumidityLow,PressureMaxIn,PressureMinIn,WindSpeedMaxMPH,WindSpeedAvgMPH,GustSpeedMaxMPH,PrecipitationSumIn
2013-1-1,33,14,7,27,4,-2,81,65,55,29.94,29.57,23,12,0,0.00
2013-1-2,8,4,-2,4,-4,-11,82,69,50,30.20,29.89,20,9,0,0.00
2013-1-3,3,0,-5,-3,-7,-11,80,74,68,30.19,29.94,18,10,0,0.00
2013-1-4,26,12,0,25,9,-4,97,87,78,29.91,29.56,9,4,0,0.00
2013-1-5,30,17,3,29,6,-4,99,64,47,30.26,29.53,16,7,0,0.00
2013-1-6,19,11,2,16,7,-4,88,82,74,30.22,29.92,17,7,0,0.00
2013-1-7,12,8,4,8,0,-5,83,69,53,30.40,30.09,14,7,0,0.00
2013-1-8,34,25,7,30,21,3,89,84,78,30.29,30.08,17,8,0,0.00
2013-1-9,36,33,29,34,29,26,99,87,66,30.32,29.73,11,5,0,0.00
2013-1-10,37,34,27,33,24,16,93,68,54,30.54,29.77,23,13,0,0.00
2013-1-11,27,22,19,18,15,12,83,73,62,30.55,30.22,20,8,0,0.00
2013-1-12,32,30,26,29,24,16,99,79,56,30.22,29.96,18,11,0,0.00
2013-1-13,37,33,30,35,30,27,97,90,80,30.04,29.93,31,17,0,0.00
2013-1-14,50,42,36,50,42,36,100,98,89,30.06,29.87,26,14,0,0.00
2013-1-15,42,35,29,36,21,13,77,57,39,30.24,30.02,18,12,0,0.00
2013-1-16,31,28,24,29,19,11,95,70,52,30.29,29.86,11,7,0,0.00
2013-1-17,39,34,27,38,30,17,100,86,50,29.97,29.71,18,10,0,0.00
2013-1-18,26,16,10,14,8,2,90,74,55,30.10,29.90,31,22,0,0.00
2013-1-19,24,17,8,20,10,-1,87,73,59,30.14,29.89,39,31,0,0.00
2013-1-20,17,11,4,13,6,-5,88,80,63,30.16,29.17,46,26,0,0.00
2013-1-21,18,1,-6,14,-9,-18,85,62,53,29.83,29.18,37,26,0,0.00
2013-1-22,-3,-8,-13,-13,-38,-100,76,44,51,29.87,29.68,30,18,0,0.00
2013-1-23,-6,-11,-17,-15,-36,-100,76,52,51,30.13,29.73,39,23,0,0.00
2013-1-24,1,-6,-11,-11,-16,-21,68,60,52,30.34,30.11,22,17,0,0.00
2013-1-25,6,1,-5,-6,-9,-12,74,62,52,30.37,30.14,17,11,0,0.00
2013-1-26,12,6,-1,1,-4,-8,75,64,48,30.29,30.14,14,8,0,0.00
2013-1-27,13,7,2,1,-4,-7,74,60,47,30.52,30.31,10,8,0,0.00
2013-1-28,19,13,9,13,7,-2,91,75,57,30.47,30.01,20,9,0,0.00
2013-1-29,27,20,14,27,12,4,98,69,57,30.19,29.96,9,6,0,0.00
2013-1-30,49,43,35,48,41,35,100,95,84,0.00,40.00,29,17,0,0.00
2013-1-31,49,28,13,49,17,-2,100,63,47,0.00,40.00,26,20,0,0.00